createdAt,value
2022-10-10T00:00:53.466Z,6.65
2022-10-10T00:03:21.534Z,6.50
2022-10-10T00:05:49.447Z,8.68
2022-10-10T00:08:17.295Z,7.68
2022-10-10T00:10:45.190Z,7.90
2022-10-10T00:13:13.200Z,7.70
2022-10-10T00:15:46.788Z,9.32
2022-10-10T00:18:16.709Z,8.68
2022-10-10T00:20:44.717Z,8.70
2022-10-10T00:23:12.632Z,7.28
2022-10-10T00:25:40.590Z,6.78
2022-10-10T00:28:08.527Z,3.50
2022-10-10T00:30:36.420Z,7.20
2022-10-10T00:33:05.654Z,10.25
2022-10-10T00:35:33.550Z,6.35
2022-10-10T00:38:01.543Z,4.78
2022-10-10T00:40:29.482Z,7.70
2022-10-10T00:42:57.422Z,9.10
2022-10-10T00:45:38.479Z,5.85
2022-10-10T00:48:12.691Z,7.20
2022-10-10T00:50:46.337Z,6.30
2022-10-10T00:53:18.376Z,8.20
2022-10-10T00:55:47.739Z,6.70
2022-10-10T00:58:18.254Z,7.70
2022-10-10T01:00:46.727Z,4.13
2022-10-10T01:03:16.172Z,7.45
2022-10-10T01:05:46.038Z,4.00
2022-10-10T01:08:14.291Z,7.82
2022-10-10T01:10:53.308Z,12.13
2022-10-10T01:13:30.904Z,5.10
2022-10-10T01:16:02.676Z,4.05
2022-10-10T01:18:39.624Z,8.88
2022-10-10T01:21:16.726Z,8.30
2022-10-10T01:24:03.264Z,15.57
2022-10-10T01:27:08.787Z,5.97
2022-10-10T01:29:43.199Z,4.68
2022-10-10T01:32:16.928Z,6.30
2022-10-10T01:34:56.818Z,5.78
2022-10-10T01:37:35.938Z,8.48
2022-10-10T01:40:13.353Z,9.00
2022-10-10T01:42:44.720Z,11.55
2022-10-10T01:45:13.942Z,19.30
2022-10-10T01:47:42.039Z,12.65
2022-10-10T01:50:13.772Z,9.55
2022-10-10T01:52:53.816Z,4.72
2022-10-10T01:55:55.296Z,4.63
2022-10-10T01:58:41.793Z,12.63
2022-10-10T02:01:18.749Z,5.03
2022-10-10T02:03:51.342Z,5.18
2022-10-10T02:06:26.629Z,7.53
2022-10-10T02:08:58.845Z,8.60
2022-10-10T02:11:29.532Z,5.22
2022-10-10T02:14:03.130Z,6.45
2022-10-10T02:19:04.380Z,13.38
2022-10-10T02:21:33.664Z,5.60
2022-10-10T02:24:06.897Z,5.47
2022-10-10T02:26:36.784Z,11.07
2022-10-10T02:29:09.209Z,9.18
2022-10-10T02:31:44.967Z,16.63
2022-10-10T02:34:17.445Z,7.40
2022-10-10T02:36:50.385Z,7.13
2022-10-10T02:39:20.982Z,9.93
2022-10-10T02:41:52.016Z,7.72
2022-10-10T02:44:20.853Z,6.55
2022-10-10T02:46:50.466Z,5.35
2022-10-10T02:49:24.399Z,6.28
2022-10-10T02:51:52.309Z,7.45
2022-10-10T02:54:20.422Z,19.30
2022-10-10T02:56:48.373Z,11.07
2022-10-10T02:59:16.289Z,7.10
2022-10-10T03:01:44.203Z,7.55
2022-10-10T03:04:13.974Z,6.45
2022-10-10T03:06:41.898Z,6.18
2022-10-10T03:09:09.794Z,7.80
2022-10-10T03:11:37.594Z,5.63
2022-10-10T03:14:05.426Z,5.75
2022-10-10T03:16:33.315Z,8.15
2022-10-10T03:19:03.073Z,8.15
2022-10-10T03:21:32.438Z,6.88
2022-10-10T03:24:00.261Z,6.50
2022-10-10T03:26:28.275Z,7.38
2022-10-10T03:28:56.109Z,6.93
2022-10-10T03:31:24.222Z,10.98
2022-10-10T03:33:52.042Z,8.18
2022-10-10T03:36:19.846Z,10.90
2022-10-10T03:38:49.149Z,6.88
2022-10-10T03:41:16.975Z,7.60
2022-10-10T03:43:44.950Z,8.15
2022-10-10T03:46:16.235Z,10.57
2022-10-10T03:48:44.493Z,7.93
2022-10-10T03:51:14.947Z,6.38
2022-10-10T03:53:42.997Z,8.75
2022-10-10T03:56:12.463Z,16.20
2022-10-10T03:58:40.329Z,7.80
2022-10-10T04:01:08.454Z,7.05
2022-10-10T04:03:36.298Z,5.00
2022-10-10T04:06:04.221Z,12.32
2022-10-10T04:08:32.557Z,9.05
2022-10-10T04:11:00.343Z,8.20
2022-10-10T04:13:29.585Z,9.13
2022-10-10T04:15:58.132Z,7.63
2022-10-10T04:18:26.452Z,9.13
2022-10-10T04:20:54.583Z,12.70
2022-10-10T04:23:22.469Z,11.35
2022-10-10T04:25:53.508Z,12.40
2022-10-10T04:28:21.554Z,9.07
2022-10-10T04:30:50.806Z,11.25
2022-10-10T04:33:18.701Z,9.20
2022-10-10T04:35:48.518Z,9.15
2022-10-10T04:38:16.367Z,10.30
2022-10-10T04:40:44.496Z,7.93
2022-10-10T04:43:12.379Z,8.43
2022-10-10T04:45:41.258Z,12.80
2022-10-10T04:48:10.425Z,8.75
2022-10-10T04:50:38.523Z,9.32
2022-10-10T04:53:06.409Z,11.63
2022-10-10T04:55:34.541Z,11.80
2022-10-10T04:58:02.508Z,10.25
2022-10-10T05:00:30.569Z,13.20
2022-10-10T05:02:58.437Z,10.98
2022-10-10T05:05:27.715Z,10.52
2022-10-10T05:07:55.887Z,8.60
2022-10-10T05:10:23.953Z,9.13
2022-10-10T05:12:52.051Z,10.70
2022-10-10T05:15:21.375Z,8.35
2022-10-10T05:17:49.440Z,9.43
2022-10-10T05:20:17.742Z,8.68
2022-10-10T05:22:47.218Z,9.30
2022-10-10T05:25:15.404Z,12.27
2022-10-10T05:27:43.542Z,12.35
2022-10-10T05:30:12.791Z,17.90
2022-10-10T05:32:40.996Z,11.70
2022-10-10T05:35:09.954Z,15.82
2022-10-10T05:37:38.180Z,10.18
2022-10-10T05:40:09.147Z,8.80
2022-10-10T05:42:37.196Z,10.63
2022-10-10T05:45:05.587Z,11.52
2022-10-10T05:47:34.118Z,14.40
2022-10-10T05:50:02.166Z,12.75
2022-10-10T05:52:30.229Z,17.88
2022-10-10T05:54:58.298Z,13.82
2022-10-10T05:57:27.558Z,14.07
2022-10-10T05:59:55.507Z,9.82
2022-10-10T06:02:23.490Z,14.13
2022-10-10T06:04:51.519Z,13.43
2022-10-10T06:07:20.834Z,12.02
2022-10-10T06:09:48.873Z,10.35
2022-10-10T06:12:16.890Z,11.05
2022-10-10T06:14:46.206Z,12.13
2022-10-10T06:17:14.249Z,10.73
2022-10-10T06:19:42.137Z,10.57
2022-10-10T06:22:09.993Z,17.75
2022-10-10T06:24:37.890Z,14.77
2022-10-10T06:27:05.826Z,11.10
2022-10-10T06:29:33.890Z,14.18
2022-10-10T06:32:03.133Z,13.68
2022-10-10T06:34:30.964Z,13.23
2022-10-10T06:36:58.832Z,18.52
2022-10-10T06:39:28.023Z,11.82
2022-10-10T06:41:56.184Z,11.05
2022-10-10T06:44:24.079Z,11.65
2022-10-10T06:46:51.934Z,10.38
2022-10-10T06:49:21.471Z,11.43
2022-10-10T06:51:49.577Z,14.75
2022-10-10T06:54:17.509Z,14.32
2022-10-10T06:56:45.382Z,15.63
2022-10-10T06:59:13.284Z,14.88
2022-10-10T07:01:41.631Z,10.23
2022-10-10T07:04:10.919Z,12.38
2022-10-10T07:06:40.430Z,18.23
2022-10-10T07:09:08.307Z,14.38
2022-10-10T07:11:36.758Z,11.98
2022-10-10T07:14:04.816Z,14.35
2022-10-10T07:16:34.174Z,15.38
2022-10-10T07:19:02.046Z,13.10
2022-10-10T07:21:30.107Z,13.55
2022-10-10T07:23:59.317Z,14.02
2022-10-10T07:26:30.999Z,11.65
2022-10-10T07:28:58.941Z,13.60
2022-10-10T07:31:26.799Z,20.25
2022-10-10T07:33:55.073Z,13.77
2022-10-10T07:36:22.992Z,10.13
2022-10-10T07:38:52.857Z,14.40
2022-10-10T07:41:22.733Z,11.82
2022-10-10T07:43:55.844Z,17.00
2022-10-10T07:46:24.550Z,10.18
2022-10-10T07:48:52.568Z,12.07
2022-10-10T07:51:20.735Z,14.88
2022-10-10T07:53:48.578Z,17.38
2022-10-10T07:56:16.407Z,21.60
2022-10-10T07:58:45.648Z,12.38
2022-10-10T08:01:14.501Z,14.73
2022-10-10T08:03:42.509Z,15.38
2022-10-10T08:06:13.087Z,13.20
2022-10-10T08:08:50.276Z,10.05
2022-10-10T08:11:20.002Z,13.68
2022-10-10T08:13:49.533Z,20.23
2022-10-10T08:16:18.027Z,13.07
2022-10-10T08:18:46.418Z,13.27
2022-10-10T08:21:16.427Z,11.65
2022-10-10T08:23:44.464Z,19.15
2022-10-10T08:26:14.119Z,14.63
2022-10-10T08:28:42.889Z,14.88
2022-10-10T08:31:14.971Z,15.18
2022-10-10T08:33:44.565Z,14.70
2022-10-10T08:36:15.446Z,12.20
2022-10-10T08:38:44.378Z,15.70
2022-10-10T08:41:21.411Z,15.32
2022-10-10T08:43:53.554Z,14.40
2022-10-10T08:46:33.808Z,12.65
2022-10-10T08:49:14.144Z,12.13
2022-10-10T08:51:47.718Z,16.05
2022-10-10T08:54:18.634Z,15.93
2022-10-10T08:56:47.299Z,18.60
2022-10-10T08:59:19.247Z,12.48
2022-10-10T09:02:18.918Z,14.10
2022-10-10T09:04:39.321Z,17.73
2022-10-10T09:07:19.971Z,27.10
2022-10-10T09:09:58.457Z,12.63
2022-10-10T09:12:33.942Z,10.73
2022-10-10T09:15:13.454Z,15.30
2022-10-10T09:17:48.392Z,14.95
2022-10-10T09:20:41.893Z,17.40
2022-10-10T09:23:23.143Z,14.63
2022-10-10T09:25:58.529Z,16.65
2022-10-10T09:28:38.187Z,15.82
2022-10-10T09:31:14.637Z,17.52
2022-10-10T09:33:49.852Z,17.55
2022-10-10T09:36:21.101Z,19.10
2022-10-10T09:38:54.762Z,13.40
2022-10-10T09:43:58.053Z,14.77
2022-10-10T09:46:27.288Z,13.85
2022-10-10T09:48:56.875Z,20.88
2022-10-10T09:51:25.064Z,17.15
2022-10-10T09:53:52.949Z,21.10
2022-10-10T09:56:23.861Z,18.05
2022-10-10T09:58:53.207Z,15.05
2022-10-10T10:01:24.083Z,16.10
2022-10-10T10:04:29.810Z,15.73
2022-10-10T10:07:07.091Z,12.90
2022-10-10T10:09:35.588Z,17.08
2022-10-10T10:12:06.520Z,16.98
2022-10-10T10:14:38.807Z,11.68
2022-10-10T10:17:09.401Z,17.90
2022-10-10T10:19:40.851Z,16.35
2022-10-10T10:22:26.823Z,14.98
2022-10-10T10:24:55.351Z,12.23
2022-10-10T10:27:25.728Z,19.42
2022-10-10T10:29:55.388Z,19.98
2022-10-10T10:32:40.638Z,12.43
2022-10-10T10:35:21.736Z,12.63
2022-10-10T10:38:15.315Z,17.63
2022-10-10T10:40:49.044Z,12.70
2022-10-10T10:43:41.877Z,15.40
2022-10-10T10:46:22.408Z,15.65
2022-10-10T10:49:00.398Z,12.95
2022-10-10T10:51:49.668Z,14.15
2022-10-10T10:54:31.955Z,11.57
2022-10-10T10:57:07.178Z,13.80
2022-10-10T11:00:25.852Z,14.68
2022-10-10T11:02:57.701Z,15.13
2022-10-10T11:05:41.790Z,12.02
2022-10-10T11:08:35.842Z,19.13
2022-10-10T11:11:24.148Z,19.60
2022-10-10T11:13:59.727Z,18.70
2022-10-10T11:16:49.386Z,12.68
2022-10-10T11:19:25.939Z,16.17
2022-10-10T11:21:59.017Z,15.77
2022-10-10T11:24:37.542Z,15.55
2022-10-10T11:27:10.738Z,17.40
2022-10-10T11:29:55.225Z,16.10
2022-10-10T11:32:29.285Z,18.90
2022-10-10T11:35:08.725Z,15.00
2022-10-10T11:37:42.487Z,19.35
2022-10-10T11:40:27.627Z,19.08
2022-10-10T11:43:01.346Z,19.90
2022-10-10T11:45:34.466Z,13.80
2022-10-10T11:48:15.417Z,15.38
2022-10-10T11:50:44.554Z,14.70
2022-10-10T11:53:21.646Z,21.85
2022-10-10T11:55:58.046Z,15.68
2022-10-10T11:58:40.420Z,18.50
2022-10-10T12:01:18.774Z,17.15
2022-10-10T12:03:46.700Z,21.30
2022-10-10T12:06:22.006Z,22.55
2022-10-10T12:08:58.209Z,19.23
2022-10-10T12:11:33.210Z,16.25
2022-10-10T12:14:03.452Z,20.40
2022-10-10T12:16:35.817Z,18.65
2022-10-10T12:19:06.958Z,19.08
2022-10-10T12:21:54.369Z,24.33
2022-10-10T12:24:23.627Z,24.08
2022-10-10T12:27:31.196Z,22.13
2022-10-10T12:30:29.244Z,19.30
2022-10-10T12:32:57.828Z,21.00
2022-10-10T12:35:35.588Z,21.85
2022-10-10T12:38:23.252Z,16.38
2022-10-10T12:41:14.954Z,25.20
2022-10-10T12:44:01.089Z,25.88
2022-10-10T12:46:31.185Z,18.08
2022-10-10T12:49:06.755Z,25.55
2022-10-10T12:51:37.134Z,21.40
2022-10-10T12:54:08.309Z,17.15
2022-10-10T12:56:40.604Z,22.70
2022-10-10T12:59:19.858Z,24.75
2022-10-10T13:01:53.230Z,23.92
2022-10-10T13:06:53.411Z,19.05
2022-10-10T13:09:23.853Z,25.70
2022-10-10T13:11:57.883Z,24.23
2022-10-10T13:14:29.198Z,27.77
2022-10-10T13:16:57.333Z,20.67
2022-10-10T13:19:26.381Z,29.42
2022-10-10T13:21:56.410Z,25.52
2022-10-10T13:24:30.909Z,35.17
2022-10-10T13:26:59.365Z,24.88
2022-10-10T13:29:33.102Z,27.73
2022-10-10T13:32:04.973Z,24.85
2022-10-10T13:34:35.374Z,31.08
2022-10-10T13:37:05.694Z,31.38
2022-10-10T13:39:35.622Z,31.20
2022-10-10T13:42:05.774Z,18.50
2022-10-10T13:44:48.953Z,8.18
2022-10-10T13:47:52.803Z,13.65
2022-10-10T13:50:24.943Z,9.77
2022-10-10T13:53:32.576Z,5.32
2022-10-10T13:56:05.971Z,10.40
2022-10-10T13:58:40.305Z,8.82
2022-10-10T14:01:23.250Z,13.98
2022-10-10T14:03:53.152Z,19.20
2022-10-10T14:06:22.589Z,10.45
2022-10-10T14:08:52.345Z,8.85
2022-10-10T14:11:23.809Z,10.82
2022-10-10T14:13:54.652Z,8.65
2022-10-10T14:16:26.645Z,12.05
2022-10-10T14:18:54.836Z,11.07
2022-10-10T14:21:22.716Z,7.10
2022-10-10T14:23:50.728Z,12.70
2022-10-10T14:26:21.600Z,13.07
2022-10-10T14:28:49.858Z,8.05
2022-10-10T14:31:18.285Z,17.58
2022-10-10T14:33:47.624Z,20.25
2022-10-10T14:36:15.635Z,12.60
2022-10-10T14:38:43.701Z,18.70
2022-10-10T14:41:14.225Z,10.82
2022-10-10T14:43:45.855Z,14.40
2022-10-10T14:46:19.743Z,15.63
2022-10-10T14:48:49.315Z,10.73
2022-10-10T14:51:34.350Z,13.30
2022-10-10T14:54:10.791Z,16.20
2022-10-10T14:57:09.155Z,25.20
2022-10-10T14:59:47.903Z,15.52
2022-10-10T15:02:16.924Z,20.50
2022-10-10T15:04:46.241Z,21.73
2022-10-10T15:07:15.336Z,29.52
2022-10-10T15:10:02.513Z,22.77
2022-10-10T15:12:32.912Z,22.17
2022-10-10T15:15:01.027Z,18.60
2022-10-10T15:17:30.477Z,27.33
2022-10-10T15:19:59.818Z,14.95
2022-10-10T15:22:28.510Z,22.65
2022-10-10T15:24:56.679Z,22.58
2022-10-10T15:27:25.390Z,15.70
2022-10-10T15:29:53.388Z,15.85
2022-10-10T15:32:21.456Z,23.02
2022-10-10T15:34:49.888Z,19.98
2022-10-10T15:37:20.156Z,14.15
2022-10-10T15:39:48.114Z,9.77
2022-10-10T15:42:22.337Z,21.05
2022-10-10T15:44:52.267Z,16.60
2022-10-10T15:47:21.210Z,19.98
2022-10-10T15:49:49.523Z,20.02
2022-10-10T15:52:19.601Z,18.17
2022-10-10T15:54:49.657Z,22.08
2022-10-10T15:57:19.020Z,14.07
2022-10-10T15:59:48.171Z,21.85
2022-10-10T16:02:16.721Z,21.02
2022-10-10T16:04:45.289Z,19.27
2022-10-10T16:07:28.230Z,16.08
2022-10-10T16:10:01.400Z,12.65
2022-10-10T16:12:29.754Z,16.88
2022-10-10T16:14:57.831Z,16.30
2022-10-10T16:17:25.670Z,14.35
2022-10-10T16:19:54.252Z,17.52
2022-10-10T16:22:22.441Z,13.77
2022-10-10T16:25:04.053Z,20.40
2022-10-10T16:27:41.627Z,15.68
2022-10-10T16:30:11.991Z,14.52
2022-10-10T16:32:42.615Z,18.55
2022-10-10T16:35:12.208Z,14.32
2022-10-10T16:37:40.436Z,10.57
2022-10-10T16:40:09.478Z,18.63
2022-10-10T16:42:37.597Z,11.55
2022-10-10T16:45:08.358Z,14.18
2022-10-10T16:47:36.607Z,17.00
2022-10-10T16:50:06.115Z,19.98
2022-10-10T16:52:38.148Z,14.95
2022-10-10T16:55:07.809Z,17.10
2022-10-10T16:57:36.418Z,19.38
2022-10-10T17:00:06.043Z,18.92
2022-10-10T17:02:38.608Z,19.17
2022-10-10T17:05:07.721Z,13.70
2022-10-10T17:07:35.942Z,15.50
2022-10-10T17:10:03.974Z,17.00
2022-10-10T17:12:32.194Z,17.35
2022-10-10T17:15:00.103Z,13.88
2022-10-10T17:17:27.931Z,11.93
2022-10-10T17:19:57.306Z,15.63
2022-10-10T17:22:25.337Z,18.45
2022-10-10T17:24:53.261Z,22.83
2022-10-10T17:27:21.203Z,18.30
2022-10-10T17:29:49.344Z,15.32
2022-10-10T17:32:17.253Z,13.52
2022-10-10T17:34:45.420Z,13.48
2022-10-10T17:37:15.672Z,15.15
2022-10-10T17:39:43.577Z,20.52
2022-10-10T17:42:11.602Z,10.30
2022-10-10T17:44:46.486Z,18.67
2022-10-10T17:47:16.977Z,19.75
2022-10-10T17:49:46.635Z,16.80
2022-10-10T17:52:20.890Z,17.30
2022-10-10T17:54:49.530Z,14.82
2022-10-10T17:57:17.953Z,11.93
2022-10-10T17:59:46.833Z,16.90
2022-10-10T18:02:17.481Z,12.10
2022-10-10T18:04:45.920Z,14.30
2022-10-10T18:07:14.878Z,14.75
2022-10-10T18:09:44.266Z,22.92
2022-10-10T18:12:12.414Z,21.17
2022-10-10T18:14:40.262Z,14.38
2022-10-10T18:17:08.188Z,29.08
2022-10-10T18:19:36.208Z,21.10
2022-10-10T18:22:04.412Z,17.63
2022-10-10T18:24:32.244Z,20.58
2022-10-10T18:27:01.729Z,19.00
2022-10-10T18:29:29.629Z,16.90
2022-10-10T18:31:57.516Z,18.52
2022-10-10T18:34:25.444Z,22.52
2022-10-10T18:36:53.334Z,14.52
2022-10-10T18:39:21.475Z,17.85
2022-10-10T18:41:49.428Z,12.75
2022-10-10T18:44:19.767Z,21.35
2022-10-10T18:46:49.449Z,17.98
2022-10-10T18:49:17.733Z,20.65
2022-10-10T18:51:45.685Z,15.75
2022-10-10T18:54:15.850Z,24.35
2022-10-10T18:56:44.294Z,21.35
2022-10-10T18:59:14.512Z,15.77
2022-10-10T19:01:45.909Z,12.45
2022-10-10T19:04:15.862Z,17.35
2022-10-10T19:06:44.600Z,21.80
2022-10-10T19:09:15.088Z,18.38
2022-10-10T19:11:45.116Z,17.02
2022-10-10T19:14:15.320Z,21.65
2022-10-10T19:16:45.700Z,25.02
2022-10-10T19:19:16.292Z,20.23
2022-10-10T19:21:45.689Z,23.50
2022-10-10T19:24:15.300Z,20.55
2022-10-10T19:26:44.673Z,23.75
2022-10-10T19:29:13.541Z,21.10
2022-10-10T19:31:41.999Z,21.45
2022-10-10T19:34:11.224Z,21.20
2022-10-10T19:36:41.391Z,19.42
2022-10-10T19:39:10.374Z,24.50
2022-10-10T19:41:38.291Z,17.10
2022-10-10T19:44:06.985Z,22.40
2022-10-10T19:46:37.466Z,14.35
2022-10-10T19:49:05.937Z,22.02
2022-10-10T19:51:35.464Z,19.85
2022-10-10T19:54:03.583Z,30.88
2022-10-10T19:56:31.730Z,15.10
2022-10-10T19:59:04.210Z,19.02
2022-10-10T20:01:32.807Z,25.10
2022-10-10T20:04:01.246Z,17.70
2022-10-10T20:06:29.608Z,24.83
2022-10-10T20:08:58.938Z,24.23
2022-10-10T20:11:27.652Z,16.40
2022-10-10T20:13:55.984Z,24.67
2022-10-10T20:16:24.862Z,24.92
2022-10-10T20:18:53.011Z,21.48
2022-10-10T20:21:31.732Z,25.63
2022-10-10T20:24:03.705Z,21.40
2022-10-10T20:26:34.677Z,25.30
2022-10-10T20:29:05.723Z,24.83
2022-10-10T20:31:35.886Z,15.27
2022-10-10T20:34:05.459Z,20.50
2022-10-10T20:36:34.634Z,19.27
2022-10-10T20:39:06.392Z,23.10
2022-10-10T20:41:36.251Z,28.40
2022-10-10T20:44:06.007Z,17.20
2022-10-10T20:46:36.027Z,18.77
2022-10-10T20:49:06.473Z,23.92
2022-10-10T20:51:35.737Z,18.38
2022-10-10T20:54:06.698Z,21.02
2022-10-10T20:56:36.400Z,23.52
2022-10-10T20:59:04.802Z,16.80
2022-10-10T21:01:32.948Z,20.98
2022-10-10T21:04:01.793Z,22.85
2022-10-10T21:06:32.275Z,16.85
2022-10-10T21:09:02.374Z,27.48
2022-10-10T21:11:32.113Z,17.27
2022-10-10T21:14:01.190Z,27.35
2022-10-10T21:16:31.416Z,13.68
2022-10-10T21:18:59.921Z,21.65
2022-10-10T21:21:29.742Z,18.90
2022-10-10T21:23:58.180Z,19.63
2022-10-10T21:26:28.170Z,22.75
2022-10-10T21:28:58.211Z,19.13
2022-10-10T21:31:28.018Z,28.45
2022-10-10T21:33:56.705Z,16.65
2022-10-10T21:36:26.777Z,18.63
2022-10-10T21:38:55.894Z,18.58
2022-10-10T21:41:25.010Z,21.70
2022-10-10T21:43:54.701Z,24.23
2022-10-10T21:46:28.617Z,20.02
2022-10-10T21:48:59.098Z,16.17
2022-10-10T21:51:27.449Z,18.88
2022-10-10T21:53:56.372Z,21.80
2022-10-10T21:56:24.950Z,13.75
2022-10-10T21:58:57.598Z,16.83
2022-10-10T22:01:32.945Z,16.33
2022-10-10T22:04:03.023Z,17.65
2022-10-10T22:06:32.627Z,19.33
2022-10-10T22:09:01.948Z,16.10
2022-10-10T22:11:32.504Z,16.15
2022-10-10T22:14:02.281Z,25.17
2022-10-10T22:16:32.246Z,15.65
2022-10-10T22:19:00.557Z,19.55
2022-10-10T22:21:31.586Z,16.17
2022-10-10T22:24:01.411Z,16.02
2022-10-10T22:26:29.953Z,25.58
2022-10-10T22:28:57.943Z,18.50
2022-10-10T22:31:25.988Z,17.13
2022-10-10T22:33:55.373Z,16.45
2022-10-10T22:36:23.315Z,17.00
2022-10-10T22:38:51.395Z,15.30
2022-10-10T22:41:19.360Z,26.77
2022-10-10T22:43:47.317Z,19.65
2022-10-10T22:46:15.361Z,21.75
2022-10-10T22:48:43.533Z,22.13
2022-10-10T22:51:16.117Z,15.50
2022-10-10T22:53:45.663Z,23.65
2022-10-10T22:56:15.838Z,15.85
2022-10-10T22:58:44.422Z,23.00
2022-10-10T23:01:16.108Z,27.30
2022-10-10T23:03:44.053Z,27.70
2022-10-10T23:06:13.859Z,39.97
2022-10-10T23:08:41.734Z,25.65
2022-10-10T23:11:09.722Z,16.08
2022-10-10T23:13:37.851Z,20.75
2022-10-10T23:16:06.525Z,11.65
2022-10-10T23:18:34.729Z,16.60
2022-10-10T23:21:02.709Z,16.75
2022-10-10T23:23:32.139Z,20.02
2022-10-10T23:26:00.079Z,10.07
2022-10-10T23:28:28.131Z,8.60
2022-10-10T23:31:01.363Z,12.55
2022-10-10T23:33:34.560Z,17.92
2022-10-10T23:36:07.743Z,13.23
2022-10-10T23:38:37.421Z,14.15
2022-10-10T23:41:05.571Z,11.38
2022-10-10T23:43:33.578Z,15.82
2022-10-10T23:46:01.932Z,15.68
2022-10-10T23:48:30.212Z,23.55
2022-10-10T23:50:58.067Z,17.20
2022-10-10T23:53:25.989Z,15.00
2022-10-10T23:55:55.420Z,12.98
2022-10-10T23:58:23.388Z,11.60
